createdAt,value
2024-02-29T00:00:27.826Z,19.73
2024-02-29T00:03:31.840Z,19.00
2024-02-29T00:06:35.767Z,18.77
2024-02-29T00:09:38.853Z,21.57
2024-02-29T00:12:41.775Z,20.30
2024-02-29T00:15:44.493Z,20.07
2024-02-29T00:18:49.572Z,20.03
2024-02-29T00:21:52.446Z,21.30
2024-02-29T00:24:55.180Z,20.60
2024-02-29T00:27:58.958Z,22.73
2024-02-29T00:31:01.729Z,21.03
2024-02-29T00:34:05.737Z,20.90
2024-02-29T00:37:08.476Z,22.03
2024-02-29T00:40:11.942Z,21.23
2024-02-29T00:43:14.683Z,21.07
2024-02-29T00:46:17.394Z,22.10
2024-02-29T00:49:21.397Z,21.73
2024-02-29T00:52:24.012Z,20.67
2024-02-29T00:55:26.702Z,21.10
2024-02-29T00:58:29.613Z,21.93
2024-02-29T01:01:32.328Z,21.70
2024-02-29T01:04:36.355Z,21.63
2024-02-29T01:07:41.631Z,21.53
2024-02-29T01:10:44.338Z,21.97
2024-02-29T01:13:47.046Z,23.40
2024-02-29T01:16:49.764Z,23.47
2024-02-29T01:19:53.794Z,22.50
2024-02-29T01:22:56.461Z,22.43
2024-02-29T01:25:59.111Z,21.77
2024-02-29T01:29:01.740Z,22.00
2024-02-29T01:32:12.354Z,22.57
2024-02-29T01:35:22.846Z,23.07
2024-02-29T01:38:25.487Z,22.57
2024-02-29T01:41:28.138Z,23.30
2024-02-29T01:44:30.945Z,22.47
2024-02-29T01:47:33.619Z,23.00
2024-02-29T01:50:39.232Z,24.47
2024-02-29T01:53:42.047Z,22.90
2024-02-29T01:56:44.853Z,22.07
2024-02-29T01:59:49.219Z,23.90
2024-02-29T02:02:52.418Z,23.10
2024-02-29T02:05:56.460Z,21.97
2024-02-29T02:08:59.345Z,22.53
2024-02-29T02:12:01.993Z,23.27
2024-02-29T02:15:04.874Z,21.50
2024-02-29T02:18:07.763Z,22.53
2024-02-29T02:21:11.929Z,22.93
2024-02-29T02:24:14.737Z,23.67
2024-02-29T02:27:17.372Z,23.50
2024-02-29T02:30:19.996Z,23.77
2024-02-29T02:33:22.930Z,23.17
2024-02-29T02:36:26.923Z,22.13
2024-02-29T02:39:29.657Z,22.63
2024-02-29T02:42:32.416Z,22.57
2024-02-29T02:45:35.088Z,22.23
2024-02-29T02:48:37.808Z,22.43
2024-02-29T02:51:41.828Z,22.77
2024-02-29T02:54:44.494Z,21.67
2024-02-29T02:57:47.180Z,21.17
2024-02-29T03:00:50.128Z,23.47
2024-02-29T03:03:53.421Z,21.30
2024-02-29T03:06:57.531Z,22.97
2024-02-29T03:10:00.511Z,22.33
2024-02-29T03:13:03.464Z,21.97
2024-02-29T03:16:06.456Z,21.37
2024-02-29T03:19:09.883Z,22.03
2024-02-29T03:22:14.657Z,21.97
2024-02-29T03:25:17.710Z,21.00
2024-02-29T03:28:20.389Z,21.50
2024-02-29T03:31:23.030Z,22.23
2024-02-29T03:34:25.741Z,21.40
2024-02-29T03:37:29.762Z,22.37
2024-02-29T03:40:32.443Z,22.30
2024-02-29T03:43:35.650Z,20.63
2024-02-29T03:46:38.478Z,22.20
2024-02-29T03:49:41.134Z,21.87
2024-02-29T03:52:45.162Z,21.90
2024-02-29T03:55:49.168Z,22.10
2024-02-29T03:58:53.318Z,21.63
2024-02-29T04:01:57.117Z,21.10
2024-02-29T04:04:59.795Z,21.97
2024-02-29T04:08:04.934Z,21.60
2024-02-29T04:11:07.989Z,20.37
2024-02-29T04:14:10.941Z,20.20
2024-02-29T04:17:13.677Z,20.63
2024-02-29T04:20:16.442Z,21.47
2024-02-29T04:23:20.422Z,22.37
2024-02-29T04:26:25.129Z,21.13
2024-02-29T04:29:27.773Z,20.30
2024-02-29T04:32:30.404Z,21.63
2024-02-29T04:35:33.054Z,19.97
2024-02-29T04:38:37.071Z,20.77
2024-02-29T04:41:39.705Z,21.30
2024-02-29T04:44:42.373Z,21.87
2024-02-29T04:47:45.079Z,21.33
2024-02-29T04:50:47.730Z,20.47
2024-02-29T04:53:51.704Z,20.43
2024-02-29T04:56:54.337Z,21.53
2024-02-29T04:59:58.028Z,19.83
2024-02-29T05:03:00.817Z,21.13
2024-02-29T05:06:04.582Z,20.97
2024-02-29T05:09:08.579Z,21.27
2024-02-29T05:12:11.195Z,20.43
2024-02-29T05:15:13.835Z,18.97
2024-02-29T05:18:16.542Z,20.47
2024-02-29T05:21:19.188Z,20.20
2024-02-29T05:24:23.207Z,19.50
2024-02-29T05:27:30.480Z,20.50
2024-02-29T05:30:33.394Z,20.13
2024-02-29T05:33:36.101Z,19.30
2024-02-29T05:36:38.781Z,20.17
2024-02-29T05:39:43.490Z,19.03
2024-02-29T05:42:46.201Z,19.40
2024-02-29T05:45:48.949Z,19.77
2024-02-29T05:48:51.638Z,19.70
2024-02-29T05:51:54.322Z,19.00
2024-02-29T05:54:58.678Z,19.87
2024-02-29T05:58:01.601Z,19.10
2024-02-29T06:01:04.654Z,19.40
2024-02-29T06:04:07.576Z,18.50
2024-02-29T06:07:10.321Z,18.57
2024-02-29T06:10:14.598Z,19.23
2024-02-29T06:13:17.791Z,18.90
2024-02-29T06:16:21.749Z,18.47
2024-02-29T06:19:24.539Z,18.93
2024-02-29T06:22:27.257Z,17.20
2024-02-29T06:25:31.277Z,18.87
2024-02-29T06:28:33.911Z,19.03
2024-02-29T06:31:36.564Z,18.97
2024-02-29T06:34:39.214Z,19.10
2024-02-29T06:37:43.559Z,17.37
2024-02-29T06:40:48.016Z,18.23
2024-02-29T06:43:50.674Z,17.97
2024-02-29T06:46:53.380Z,17.50
2024-02-29T06:49:56.009Z,17.40
2024-02-29T06:52:59.330Z,17.50
2024-02-29T06:56:05.102Z,16.93
2024-02-29T06:59:07.798Z,17.20
2024-02-29T07:02:10.464Z,17.40
2024-02-29T07:05:13.452Z,17.10
2024-02-29T07:08:16.105Z,16.67
2024-02-29T07:11:20.672Z,15.90
2024-02-29T07:14:23.746Z,15.90
2024-02-29T07:17:26.472Z,15.80
2024-02-29T07:20:29.300Z,15.23
2024-02-29T07:23:32.604Z,15.70
2024-02-29T07:26:41.374Z,15.37
2024-02-29T07:29:44.289Z,16.17
2024-02-29T07:32:46.964Z,15.03
2024-02-29T07:35:49.761Z,15.40
2024-02-29T07:38:52.420Z,15.43
2024-02-29T07:41:56.480Z,15.40
2024-02-29T07:44:59.209Z,15.00
2024-02-29T07:48:04.038Z,15.40
2024-02-29T07:51:06.977Z,13.90
2024-02-29T07:54:10.290Z,14.03
2024-02-29T07:57:14.765Z,14.57
2024-02-29T08:00:18.928Z,14.20
2024-02-29T08:03:21.573Z,14.63
2024-02-29T08:06:24.382Z,14.23
2024-02-29T08:09:27.106Z,14.77
2024-02-29T08:12:31.117Z,13.83
2024-02-29T08:15:35.105Z,12.43
2024-02-29T08:18:39.166Z,13.87
2024-02-29T08:21:41.883Z,14.33
2024-02-29T08:24:44.549Z,12.63
2024-02-29T08:27:48.576Z,12.40
2024-02-29T08:30:51.473Z,12.93
2024-02-29T08:33:54.165Z,12.77
2024-02-29T08:36:56.886Z,12.73
2024-02-29T08:39:59.576Z,13.03
2024-02-29T08:43:03.961Z,12.40
2024-02-29T08:46:06.698Z,13.10
2024-02-29T08:49:09.341Z,11.77
2024-02-29T08:52:12.137Z,13.30
2024-02-29T08:55:15.037Z,12.40
2024-02-29T08:58:19.122Z,11.70
2024-02-29T09:01:22.227Z,11.73
2024-02-29T09:04:25.401Z,11.00
2024-02-29T09:07:28.566Z,10.70
2024-02-29T09:10:31.383Z,10.00
2024-02-29T09:13:36.241Z,9.50
2024-02-29T09:16:39.513Z,10.60
2024-02-29T09:19:42.487Z,10.17
2024-02-29T09:22:45.110Z,9.90
2024-02-29T09:25:47.756Z,10.50
2024-02-29T09:28:51.736Z,10.17
2024-02-29T09:31:54.377Z,10.07
2024-02-29T09:34:57.008Z,9.70
2024-02-29T09:37:59.694Z,9.37
2024-02-29T09:41:12.631Z,9.47
2024-02-29T09:44:27.545Z,9.10
2024-02-29T09:47:33.191Z,9.27
2024-02-29T09:50:35.901Z,9.13
2024-02-29T09:53:38.981Z,8.30
2024-02-29T09:56:42.088Z,8.17
2024-02-29T09:59:46.182Z,9.50
2024-02-29T10:02:51.558Z,8.63
2024-02-29T10:05:55.714Z,8.80
2024-02-29T10:08:58.629Z,8.43
2024-02-29T10:12:03.003Z,8.03
2024-02-29T10:15:11.213Z,7.97
2024-02-29T10:18:13.963Z,7.33
2024-02-29T10:21:16.758Z,7.40
2024-02-29T10:24:20.512Z,7.47
2024-02-29T10:27:23.518Z,7.27
2024-02-29T10:30:29.535Z,7.67
2024-02-29T10:33:34.103Z,6.80
2024-02-29T10:36:36.791Z,7.27
2024-02-29T10:39:41.602Z,6.83
2024-02-29T10:42:44.466Z,6.80
2024-02-29T10:45:52.240Z,6.50
2024-02-29T10:49:01.232Z,6.17
2024-02-29T10:52:11.600Z,5.73
2024-02-29T10:55:20.290Z,5.87
2024-02-29T10:58:26.445Z,6.00
2024-02-29T11:01:30.954Z,5.93
2024-02-29T11:04:33.969Z,6.23
2024-02-29T11:07:36.803Z,6.10
2024-02-29T11:10:39.671Z,6.43
2024-02-29T11:13:43.028Z,6.32
2024-02-29T11:16:47.940Z,5.85
2024-02-29T11:19:58.605Z,6.07
2024-02-29T11:23:10.626Z,5.68
2024-02-29T11:26:14.294Z,5.50
2024-02-29T11:29:17.848Z,5.20
2024-02-29T11:32:30.198Z,5.70
2024-02-29T11:35:34.161Z,4.93
2024-02-29T11:38:40.368Z,5.13
2024-02-29T11:41:43.597Z,5.57
2024-02-29T11:44:48.316Z,5.30
2024-02-29T11:47:52.891Z,5.50
2024-02-29T11:50:55.585Z,4.80
2024-02-29T11:53:59.679Z,5.75
2024-02-29T11:57:02.575Z,4.60
2024-02-29T12:00:07.046Z,4.95
2024-02-29T12:03:11.227Z,4.68
2024-02-29T12:06:13.969Z,5.35
2024-02-29T12:09:16.846Z,5.90
2024-02-29T12:12:22.452Z,4.90
2024-02-29T12:15:25.225Z,4.97
2024-02-29T12:18:29.266Z,5.63
2024-02-29T12:21:31.946Z,4.78
2024-02-29T12:24:35.200Z,5.40
2024-02-29T12:27:37.862Z,4.93
2024-02-29T12:30:40.748Z,5.40
2024-02-29T12:33:45.566Z,6.15
2024-02-29T12:36:48.819Z,5.60
2024-02-29T12:39:55.677Z,5.30
2024-02-29T12:42:58.876Z,5.77
2024-02-29T12:46:01.734Z,5.63
2024-02-29T12:49:05.808Z,6.23
2024-02-29T12:52:08.490Z,5.53
2024-02-29T12:55:11.607Z,5.57
2024-02-29T12:58:14.401Z,5.50
2024-02-29T13:01:17.392Z,5.67
2024-02-29T13:04:21.670Z,5.07
2024-02-29T13:07:24.438Z,5.60
2024-02-29T13:10:27.455Z,5.05
2024-02-29T13:13:30.335Z,5.70
2024-02-29T13:16:33.172Z,5.47
2024-02-29T13:19:37.188Z,5.72
2024-02-29T13:22:40.730Z,5.28
2024-02-29T13:25:43.405Z,5.57
2024-02-29T13:28:47.404Z,6.07
2024-02-29T13:31:50.327Z,5.47
2024-02-29T13:34:54.324Z,5.53
2024-02-29T13:37:56.954Z,5.70
2024-02-29T13:40:59.615Z,6.57
2024-02-29T13:44:03.346Z,6.43
2024-02-29T13:47:06.617Z,6.45
2024-02-29T13:50:11.326Z,6.22
2024-02-29T13:53:14.469Z,6.15
2024-02-29T13:56:19.225Z,6.20
2024-02-29T13:59:22.265Z,6.45
2024-02-29T14:02:24.908Z,6.45
2024-02-29T14:05:28.892Z,6.30
2024-02-29T14:08:31.729Z,5.90
2024-02-29T14:11:34.598Z,6.40
2024-02-29T14:14:37.901Z,6.28
2024-02-29T14:17:41.114Z,6.82
2024-02-29T14:20:45.164Z,7.43
2024-02-29T14:23:48.081Z,7.30
2024-02-29T14:26:52.687Z,6.85
2024-02-29T14:29:55.365Z,6.93
2024-02-29T14:32:58.777Z,6.85
2024-02-29T14:36:02.926Z,6.45
2024-02-29T14:39:12.483Z,6.90
2024-02-29T14:42:15.521Z,7.43
2024-02-29T14:45:18.226Z,7.07
2024-02-29T14:48:21.129Z,6.93
2024-02-29T14:51:25.122Z,7.40
2024-02-29T14:54:27.775Z,7.07
2024-02-29T14:57:30.439Z,7.50
2024-02-29T15:00:33.066Z,7.40
2024-02-29T15:03:36.931Z,6.87
2024-02-29T15:06:41.992Z,7.00
2024-02-29T15:09:44.779Z,7.20
2024-02-29T15:12:47.458Z,6.40
2024-02-29T15:15:50.915Z,6.67
2024-02-29T15:18:53.951Z,6.60
2024-02-29T15:21:57.963Z,6.70
2024-02-29T15:25:00.830Z,6.10
2024-02-29T15:28:05.495Z,6.63
2024-02-29T15:31:08.695Z,5.97
2024-02-29T15:34:11.359Z,6.13
2024-02-29T15:37:15.553Z,5.70
2024-02-29T15:40:18.369Z,5.60
2024-02-29T15:43:21.147Z,5.00
2024-02-29T15:46:23.958Z,4.87
2024-02-29T15:49:26.707Z,5.03
2024-02-29T15:52:30.823Z,5.00
2024-02-29T15:55:33.625Z,4.37
2024-02-29T15:58:36.431Z,4.40
2024-02-29T16:01:39.142Z,5.20
2024-02-29T16:04:41.868Z,5.00
2024-02-29T16:07:45.933Z,4.57
2024-02-29T16:10:48.624Z,4.60
2024-02-29T16:13:51.415Z,4.93
2024-02-29T16:16:54.446Z,5.13
2024-02-29T16:19:57.210Z,4.90
2024-02-29T16:23:01.436Z,4.63
2024-02-29T16:26:04.511Z,4.97
2024-02-29T16:29:07.152Z,4.60
2024-02-29T16:32:11.626Z,5.43
2024-02-29T16:35:14.387Z,4.70
2024-02-29T16:38:18.569Z,5.00
2024-02-29T16:41:21.862Z,5.23
2024-02-29T16:44:27.465Z,5.27
2024-02-29T16:47:30.280Z,4.60
2024-02-29T16:50:32.950Z,4.93
2024-02-29T16:53:36.956Z,4.93
2024-02-29T16:56:40.498Z,5.40
2024-02-29T16:59:44.189Z,6.03
2024-02-29T17:02:46.864Z,6.30
2024-02-29T17:05:49.516Z,6.53
2024-02-29T17:08:53.505Z,6.90
2024-02-29T17:11:56.140Z,7.03
2024-02-29T17:14:58.762Z,6.53
2024-02-29T17:18:01.568Z,7.27
2024-02-29T17:21:04.531Z,6.53
2024-02-29T17:24:08.552Z,6.90
2024-02-29T17:27:11.236Z,7.10
2024-02-29T17:30:16.497Z,6.90
2024-02-29T17:33:19.161Z,7.73
2024-02-29T17:36:21.798Z,7.10
2024-02-29T17:39:25.894Z,7.43
2024-02-29T17:42:29.451Z,7.03
2024-02-29T17:45:32.094Z,8.20
2024-02-29T17:48:35.004Z,8.30
2024-02-29T17:51:38.276Z,8.07
2024-02-29T17:54:42.854Z,9.07
2024-02-29T17:57:46.877Z,8.80
2024-02-29T18:00:49.873Z,8.10
2024-02-29T18:03:52.596Z,8.30
2024-02-29T18:06:55.405Z,8.53
2024-02-29T18:10:01.081Z,7.87
2024-02-29T18:13:04.012Z,8.67
2024-02-29T18:16:07.200Z,8.47
2024-02-29T18:19:10.093Z,8.57
2024-02-29T18:22:12.811Z,8.50
2024-02-29T18:25:18.749Z,9.23
2024-02-29T18:28:22.145Z,9.00
2024-02-29T18:31:24.993Z,9.50
2024-02-29T18:34:27.840Z,10.07
2024-02-29T18:37:30.533Z,9.70
2024-02-29T18:40:34.592Z,9.87
2024-02-29T18:43:37.224Z,10.53
2024-02-29T18:46:40.987Z,10.30
2024-02-29T18:49:43.775Z,10.80
2024-02-29T18:52:46.410Z,12.17
2024-02-29T18:55:50.876Z,11.80
2024-02-29T18:58:54.069Z,11.67
2024-02-29T19:01:57.025Z,11.50
2024-02-29T19:04:59.775Z,11.73
2024-02-29T19:08:02.806Z,11.87
2024-02-29T19:11:07.032Z,11.80
2024-02-29T19:14:09.919Z,12.73
2024-02-29T19:17:13.246Z,11.80
2024-02-29T19:20:16.249Z,11.93
2024-02-29T19:23:18.892Z,12.87
2024-02-29T19:26:23.964Z,12.43
2024-02-29T19:29:27.485Z,12.67
2024-02-29T19:32:30.233Z,12.60
2024-02-29T19:35:34.881Z,12.97
2024-02-29T19:38:37.534Z,12.73
2024-02-29T19:41:43.806Z,13.57
2024-02-29T19:44:46.501Z,13.70
2024-02-29T19:47:50.941Z,12.23
2024-02-29T19:50:54.701Z,13.90
2024-02-29T19:53:57.340Z,13.80
2024-02-29T19:57:01.302Z,13.50
2024-02-29T20:00:07.163Z,13.07
2024-02-29T20:03:09.812Z,12.73
2024-02-29T20:06:12.486Z,13.03
2024-02-29T20:09:16.259Z,13.23
2024-02-29T20:12:20.365Z,13.57
2024-02-29T20:15:23.070Z,13.13
2024-02-29T20:18:28.179Z,13.97
2024-02-29T20:21:31.341Z,13.63
2024-02-29T20:24:34.009Z,14.17
2024-02-29T20:27:37.986Z,13.27
2024-02-29T20:30:40.715Z,13.67
2024-02-29T20:33:43.967Z,14.33
2024-02-29T20:36:47.572Z,14.77
2024-02-29T20:39:50.289Z,15.10
2024-02-29T20:42:54.360Z,15.03
2024-02-29T20:45:57.026Z,15.63
2024-02-29T20:48:59.739Z,14.80
2024-02-29T20:52:02.428Z,14.20
2024-02-29T20:55:05.791Z,14.57
2024-02-29T20:58:09.886Z,14.57
2024-02-29T21:01:12.690Z,15.87
2024-02-29T21:04:15.429Z,14.77
2024-02-29T21:07:18.529Z,14.20
2024-02-29T21:10:21.913Z,14.63
2024-02-29T21:13:27.511Z,14.50
2024-02-29T21:16:32.470Z,13.77
2024-02-29T21:19:35.292Z,15.60
2024-02-29T21:22:38.253Z,15.23
2024-02-29T21:25:40.899Z,15.57
2024-02-29T21:28:47.421Z,15.47
2024-02-29T21:31:50.043Z,15.13
2024-02-29T21:34:52.678Z,13.97
2024-02-29T21:37:55.367Z,15.27
2024-02-29T21:40:58.016Z,14.97
2024-02-29T21:44:02.007Z,15.43
2024-02-29T21:47:05.111Z,15.37
2024-02-29T21:50:09.449Z,15.20
2024-02-29T21:53:12.202Z,14.47
2024-02-29T21:56:15.086Z,14.53
2024-02-29T21:59:19.171Z,15.90
2024-02-29T22:02:22.119Z,16.33
2024-02-29T22:05:24.820Z,13.70
2024-02-29T22:08:27.484Z,15.57
2024-02-29T22:11:30.194Z,15.30
2024-02-29T22:14:34.200Z,15.83
2024-02-29T22:17:36.860Z,15.03
2024-02-29T22:20:39.572Z,15.73
2024-02-29T22:23:42.444Z,15.83
2024-02-29T22:26:45.107Z,15.83
2024-02-29T22:29:49.127Z,15.53
2024-02-29T22:32:51.770Z,15.83
2024-02-29T22:35:54.432Z,16.00
2024-02-29T22:38:57.057Z,15.17
2024-02-29T22:42:02.315Z,15.27
2024-02-29T22:45:09.902Z,16.03
2024-02-29T22:48:12.601Z,15.87
2024-02-29T22:51:15.382Z,15.73
2024-02-29T22:54:18.188Z,15.70
2024-02-29T22:57:20.829Z,16.30
2024-02-29T23:00:31.318Z,15.17
2024-02-29T23:03:34.093Z,16.00
2024-02-29T23:06:36.742Z,15.77
2024-02-29T23:09:39.588Z,15.23
2024-02-29T23:12:42.233Z,15.83
2024-02-29T23:15:46.263Z,15.83
2024-02-29T23:18:49.044Z,16.80
2024-02-29T23:21:51.719Z,15.87
2024-02-29T23:24:54.584Z,15.67
2024-02-29T23:27:57.428Z,15.97
2024-02-29T23:31:01.729Z,16.20
2024-02-29T23:34:04.846Z,15.83
2024-02-29T23:37:08.338Z,16.43
2024-02-29T23:40:11.643Z,16.80
2024-02-29T23:43:14.337Z,16.30
2024-02-29T23:46:18.382Z,17.27
2024-02-29T23:49:21.301Z,16.93
2024-02-29T23:52:24.062Z,16.03
2024-02-29T23:55:27.370Z,17.00
2024-02-29T23:58:30.541Z,17.47
